• Join FlightAware (Why Join?)
  • Login
  • US Flag 
08:44AM EST


 

Airport Tracker/Info


-or-


 

Live Flight TrackerFlight Track Log ✈ GJS3710 ✈ 11-May-2013 ✈ KDEN - KOMA

Flight Track Log - Related Links

Times and Time Zones

All times are in EDT time to prevent confusion due to time zone crossing. See the GJS3710 flight status page for this flight to view local times or setup timezone preferences in your user account.

Time Position Orientation Groundspeed Altitude Reporting Facility
EDT Latitude Longitude Course Direction KTS MPH feet Rate Location/Type
05:27PM 39.8833 -104.5833 79° East 176 203 6,800  Level Denver TRACON
05:28PM 39.9000 -104.5000 75° East 239 275 8,300 1,762 Climbing Denver TRACON
05:29PM 39.9164 -104.2687 80° East  Level FlightAware Approximate
05:29PM 39.9167 -104.3833 79° East 294 338 10,500  Level Denver TRACON
05:30PM 39.9464 -104.1382 73° East  Level FlightAware Approximate
05:30PM 39.9500 -104.2667 70° East 347 399 11,900  Level Denver TRACON
05:31PM 39.9667 -104.0057 90° East  Level FlightAware Approximate
05:31PM 39.9722 -104.1450 77° East 354 407 14,500  Level Denver Center
05:32PM 39.9917 -103.8749 79° East  Level FlightAware Approximate
05:32PM 39.9875 -104.0006 82° East 374 430 16,700  Level Denver Center
05:33PM 40.0053 -103.8639 80° East 382 440 18,200 1,610 Climbing Denver Center
05:34PM 40.0281 -103.7142 79° East 396 456 20,000 1,475 Climbing Denver Center
05:35PM 40.0483 -103.6025 77° East 394 453 21,200 1,659 Climbing Denver Center
05:36PM 40.0778 -103.4150 78° East 413 475 23,400 1,742 Climbing Denver Center
05:37PM 40.1017 -103.2731 78° East 418 481 24,800 1,220 Climbing Denver Center
05:38PM 40.1242 -103.1283 78° East 424 488 25,900 1,067 Climbing Denver Center
05:39PM 40.1522 -102.9544 78° East 435 501 27,200 1,191 Climbing Denver Center
05:40PM 40.1836 -102.7519 78° East 446 513 28,600 1,113 Climbing Denver Center
05:41PM 40.2072 -102.5981 79° East 451 519 29,500 829 Climbing Denver Center
05:42PM 40.2319 -102.4439 78° East 453 521 30,300 829 Climbing Denver Center
05:43PM 40.2586 -102.2600 79° East 460 529 31,200 780 Climbing Denver Center
05:44PM 40.2836 -102.1022 78° East 464 534 31,900 732 Climbing Denver Center
05:45PM 40.3106 -101.9150 79° East 469 540 32,700 683 Climbing Denver Center
05:46PM 40.3306 -101.7819 79° East 467 537 33,300 667 Climbing Denver Center
05:48PM 40.3617 -101.5689 79° East 468 539 34,200 794 Climbing Denver Center
05:49PM 40.3889 -101.3833 79° East 465 535 35,100 800 Climbing Denver Center
05:50PM 40.4147 -101.2011 79° East 458 527 36,000 756 Climbing Denver Center
05:51PM 40.4406 -101.0183 79° East 459 528 36,800 484 Climbing Denver Center
05:52PM 40.4711 -100.8406 77° East 452 520 37,000 97 Climbing Denver Center
05:53PM 40.5028 -100.6933 74° East 444 511 37,000  Level Denver Center
05:54PM 40.5394 -100.5225 74° East 440 506 37,000  Level Denver Center
05:55PM 40.5697 -100.3764 75° East 436 502 37,000  Level Denver Center
05:56PM 40.6061 -100.2067 74° East 435 501 37,000  Level Denver Center
05:57PM 40.6358 -100.0606 75° East 434 499 37,000  Level Denver Center
05:58PM 40.6831 -99.8336 75° East 439 505 37,000  Level Denver Center
05:59PM 40.7144 -99.6783 75° East 439 505 37,000  Level Denver Center
06:01PM 40.7467 -99.5247 74° East 436 502 37,000  Level Denver Center
06:02PM 40.7708 -99.4006 76° East 437 503 37,000  Level Denver Center
06:03PM 40.8089 -99.2150 75° East 438 504 37,000  Level Denver Center
06:04PM 40.8411 -99.0500 75° East 437 503 37,000  Level Denver Center
06:04PM 40.8556 -98.9742 76° East 438 504 37,000 -795 Level Minneapolis Center
06:05PM 40.8867 -98.8186 75° East 438 504 35,900 -1,279 Descending Minneapolis Center
06:06PM 40.9153 -98.6653 76° East 432 497 34,400 -1,525 Descending Minneapolis Center
06:07PM 40.9461 -98.5106 75° East 433 498 32,800 -1,610 Descending Minneapolis Center
06:08PM 40.9761 -98.3514 76° East 445 512 31,100 -1,707 Descending Minneapolis Center
06:09PM 41.0147 -98.1967 72° East 446 513 29,300 -1,770 Descending Minneapolis Center
06:10PM 41.0553 -98.0450 70° East 441 507 27,500 -1,770 Descending Minneapolis Center
06:11PM 41.0956 -97.8967 70° East 433 498 25,700 -1,770 Descending Minneapolis Center
06:12PM 41.1336 -97.7544 70° East 418 481 23,900 -1,951 Descending Minneapolis Center
06:13PM 41.1781 -97.5842 71° East 409 471 21,700 -1,951 Descending Minneapolis Center
06:14PM 41.2150 -97.4450 71° East 403 464 19,900 -1,770 Descending Minneapolis Center
06:15PM 41.2514 -97.3061 71° East 394 453 18,100 -1,672 Descending Minneapolis Center
06:16PM 41.2864 -97.1703 71° East 390 449 16,500 -1,260 Descending Minneapolis Center
06:17PM 41.2928 -97.0900 84° East 374 430 16,000 -526 Descending Minneapolis Center
06:17PM 41.3031 -97.0500 71° East 371 427 16,000 -571 Level Minneapolis Center
06:18PM 41.3528 -96.9081 65° Northeast 376 433 15,200 -1,039 Descending Minneapolis Center
06:19PM 41.3517 -96.7697 91° East 388 447 13,800 -1,448 Descending Minneapolis Center
06:20PM 41.3189 -96.6381 108° East 378 435 12,400 -1,377 Descending Minneapolis Center
06:21PM 41.2961 -96.5019 103° East 318 366 11,000 -1,654 Descending Minneapolis Center
06:22PM 41.2786 -96.3872 101° East 314 361 8,900 -1,884 Descending Minneapolis Center
06:23PM 41.2617 -96.2839 102° East 289 333 7,200 -1,721 Descending Minneapolis Center
06:24PM 41.2447 -96.1831 103° East 273 314 5,400 -1,536 Descending Minneapolis Center
06:25PM 41.2289 -96.0778 101° East 281 323 4,000 -645 Descending Minneapolis Center
06:27PM 41.2934 -95.9184 90° East  Level Estimated
06:27PM 41.1725 -95.9061 90° East 260 299 3,400  Level Minneapolis Center
06:28PM 41.1292 -95.8528 137° Southeast 198 228 3,000 -205 Descending Minneapolis Center
06:29PM 41.1667 -95.8181 35° Northeast 168 193 3,000  Level Minneapolis Center